createdAt,value
2023-05-08T00:01:02.172Z,98647.69
2023-05-08T00:03:29.213Z,98649.52
2023-05-08T00:05:56.326Z,98647.95
2023-05-08T00:08:23.729Z,98647.41
2023-05-08T00:10:50.711Z,98654.30
2023-05-08T00:13:17.825Z,98652.96
2023-05-08T00:15:44.954Z,98657.05
2023-05-08T00:18:11.980Z,98653.37
2023-05-08T00:20:39.124Z,98654.91
2023-05-08T00:23:06.225Z,98656.23
2023-05-08T00:25:33.368Z,98652.06
2023-05-08T00:28:00.798Z,98646.25
2023-05-08T00:30:28.758Z,98651.11
2023-05-08T00:32:55.698Z,98646.08
2023-05-08T00:35:22.716Z,98648.82
2023-05-08T00:37:49.549Z,98648.70
2023-05-08T00:40:16.461Z,98647.60
2023-05-08T00:42:43.499Z,98649.61
2023-05-08T00:45:10.969Z,98647.44
2023-05-08T00:47:38.461Z,98650.11
2023-05-08T00:50:06.295Z,98651.03
2023-05-08T00:52:33.620Z,98656.42
2023-05-08T00:55:04.791Z,98657.64
2023-05-08T00:57:35.064Z,98661.72
2023-05-08T01:00:04.130Z,98666.85
2023-05-08T01:02:32.043Z,98668.81
2023-05-08T01:04:59.718Z,98673.02
2023-05-08T01:07:27.590Z,98673.09
2023-05-08T01:09:54.963Z,98679.42
2023-05-08T01:12:42.896Z,98688.33
2023-05-08T01:15:27.139Z,98688.94
2023-05-08T01:18:17.025Z,98691.60
2023-05-08T01:21:15.938Z,98699.73
2023-05-08T01:24:08.174Z,98698.50
2023-05-08T01:26:47.486Z,98699.48
2023-05-08T01:29:30.392Z,98696.77
2023-05-08T01:32:14.809Z,98685.05
2023-05-08T01:35:29.991Z,98682.55
2023-05-08T01:38:38.270Z,98670.05
2023-05-08T01:41:22.669Z,98669.69
2023-05-08T01:44:14.765Z,98667.63
2023-05-08T01:46:44.940Z,98681.52
2023-05-08T01:49:29.723Z,98686.01
2023-05-08T01:52:02.705Z,98684.73
2023-05-08T01:54:38.514Z,98683.95
2023-05-08T01:57:09.744Z,98685.80
2023-05-08T01:59:41.136Z,98685.11
2023-05-08T02:02:11.830Z,98691.80
2023-05-08T02:04:42.344Z,98699.30
2023-05-08T02:07:09.261Z,98703.54
2023-05-08T02:09:37.529Z,98701.57
2023-05-08T02:12:07.814Z,98704.60
2023-05-08T02:14:36.961Z,98710.55
2023-05-08T02:17:05.875Z,98714.55
2023-05-08T02:19:35.698Z,98715.92
2023-05-08T02:22:04.126Z,98723.72
2023-05-08T02:24:33.607Z,98722.38
2023-05-08T02:27:01.278Z,98721.75
2023-05-08T02:29:29.711Z,98713.56
2023-05-08T02:31:57.714Z,98717.48
2023-05-08T02:34:25.479Z,98719.17
2023-05-08T02:36:54.292Z,98717.05
2023-05-08T02:39:26.082Z,98714.39
2023-05-08T02:41:53.383Z,98710.88
2023-05-08T02:44:20.471Z,98713.91
2023-05-08T02:46:58.719Z,98719.65
2023-05-08T02:49:28.690Z,98715.13
2023-05-08T02:52:11.120Z,98714.34
2023-05-08T02:55:10.572Z,98715.69
2023-05-08T02:57:49.770Z,98718.63
2023-05-08T03:00:27.072Z,98717.00
2023-05-08T03:03:16.026Z,98719.84
2023-05-08T03:05:50.404Z,98716.59
2023-05-08T03:08:23.547Z,98716.19
2023-05-08T03:10:54.984Z,98724.79
2023-05-08T03:13:23.194Z,98723.94
2023-05-08T03:16:06.030Z,98724.34
2023-05-08T03:18:40.971Z,98719.95
2023-05-08T03:21:12.574Z,98724.98
2023-05-08T03:23:41.230Z,98725.18
2023-05-08T03:26:09.160Z,98723.84
2023-05-08T03:28:38.745Z,98717.80
2023-05-08T03:31:06.493Z,98717.12
2023-05-08T03:33:37.233Z,98718.61
2023-05-08T03:36:05.605Z,98719.98
2023-05-08T03:38:34.599Z,98721.81
2023-05-08T03:41:01.700Z,98721.86
2023-05-08T03:43:30.992Z,98722.94
2023-05-08T03:45:59.256Z,98728.85
2023-05-08T03:48:28.326Z,98724.27
2023-05-08T03:50:57.198Z,98725.65
2023-05-08T03:53:24.479Z,98731.30
2023-05-08T03:55:51.359Z,98728.55
2023-05-08T03:58:31.295Z,98735.80
2023-05-08T04:01:41.156Z,98742.42
2023-05-08T04:04:27.597Z,98741.41
2023-05-08T04:07:17.647Z,98745.58
2023-05-08T04:10:02.829Z,98749.80
2023-05-08T04:12:40.075Z,98751.21
2023-05-08T04:15:14.151Z,98749.02
2023-05-08T04:17:45.276Z,98746.12
2023-05-08T04:20:18.845Z,98748.27
2023-05-08T04:22:49.434Z,98751.61
2023-05-08T04:25:18.039Z,98748.45
2023-05-08T04:27:46.485Z,98750.43
2023-05-08T04:30:15.166Z,98751.70
2023-05-08T04:32:46.193Z,98748.11
2023-05-08T04:35:14.197Z,98750.70
2023-05-08T04:37:44.751Z,98755.58
2023-05-08T04:40:12.069Z,98757.09
2023-05-08T04:42:42.325Z,98759.65
2023-05-08T04:45:10.223Z,98764.20
2023-05-08T04:47:37.845Z,98766.20
2023-05-08T04:50:05.773Z,98770.20
2023-05-08T04:52:34.406Z,98776.35
2023-05-08T04:55:02.157Z,98775.91
2023-05-08T04:57:29.756Z,98781.36
2023-05-08T04:59:56.903Z,98785.41
2023-05-08T05:02:27.560Z,98789.46
2023-05-08T05:04:58.270Z,98784.23
2023-05-08T05:07:25.635Z,98786.95
2023-05-08T05:09:52.993Z,98781.33
2023-05-08T05:12:20.577Z,98778.23
2023-05-08T05:14:47.620Z,98778.30
2023-05-08T05:17:14.585Z,98780.86
2023-05-08T05:19:41.801Z,98778.77
2023-05-08T05:22:09.075Z,98778.52
2023-05-08T05:24:36.270Z,98774.02
2023-05-08T05:27:04.097Z,98769.02
2023-05-08T05:29:31.767Z,98768.89
2023-05-08T05:31:59.230Z,98772.52
2023-05-08T05:34:26.289Z,98774.39
2023-05-08T05:36:53.649Z,98775.88
2023-05-08T05:39:20.991Z,98769.84
2023-05-08T05:41:48.745Z,98771.80
2023-05-08T05:44:16.055Z,98772.05
2023-05-08T05:46:44.490Z,98772.80
2023-05-08T05:49:12.178Z,98770.42
2023-05-08T05:51:39.845Z,98773.30
2023-05-08T05:54:07.088Z,98766.67
2023-05-08T05:56:34.608Z,98768.67
2023-05-08T05:59:01.624Z,98767.66
2023-05-08T06:01:29.340Z,98768.39
2023-05-08T06:03:56.669Z,98767.86
2023-05-08T06:06:24.363Z,98769.52
2023-05-08T06:08:51.376Z,98770.98
2023-05-08T06:11:18.929Z,98773.20
2023-05-08T06:13:47.219Z,98776.97
2023-05-08T06:16:15.552Z,98779.63
2023-05-08T06:18:42.956Z,98779.21
2023-05-08T06:21:10.319Z,98781.55
2023-05-08T06:23:37.474Z,98787.81
2023-05-08T06:26:04.534Z,98783.55
2023-05-08T06:28:31.656Z,98781.63
2023-05-08T06:30:58.831Z,98786.14
2023-05-08T06:33:27.148Z,98785.29
2023-05-08T06:35:54.482Z,98783.04
2023-05-08T06:38:21.398Z,98784.98
2023-05-08T06:40:50.336Z,98787.29
2023-05-08T06:43:17.344Z,98784.06
2023-05-08T06:45:45.158Z,98791.11
2023-05-08T06:48:12.329Z,98790.83
2023-05-08T06:50:40.214Z,98789.42
2023-05-08T06:53:07.537Z,98793.30
2023-05-08T06:55:34.920Z,98794.02
2023-05-08T06:58:01.955Z,98797.17
2023-05-08T07:00:29.142Z,98795.34
2023-05-08T07:02:56.180Z,98793.23
2023-05-08T07:05:23.422Z,98795.27
2023-05-08T07:07:50.640Z,98795.45
2023-05-08T07:10:20.628Z,98797.48
2023-05-08T07:12:50.817Z,98797.31
2023-05-08T07:15:26.055Z,98804.00
2023-05-08T07:17:53.861Z,98805.64
2023-05-08T07:20:21.201Z,98811.91
2023-05-08T07:22:48.292Z,98816.61
2023-05-08T07:25:15.709Z,98820.73
2023-05-08T07:27:42.929Z,98825.61
2023-05-08T07:30:10.624Z,98827.96
2023-05-08T07:32:38.816Z,98829.78
2023-05-08T07:35:10.761Z,98834.17
2023-05-08T07:37:41.314Z,98833.48
2023-05-08T07:40:08.694Z,98840.87
2023-05-08T07:42:42.703Z,98844.05
2023-05-08T07:45:11.715Z,98844.38
2023-05-08T07:47:48.479Z,98839.59
2023-05-08T07:50:15.738Z,98840.31
2023-05-08T07:52:42.963Z,98841.54
2023-05-08T07:55:10.779Z,98841.06
2023-05-08T07:57:39.742Z,98842.45
2023-05-08T08:00:08.762Z,98844.98
2023-05-08T08:02:43.069Z,98848.00
2023-05-08T08:05:10.750Z,98847.52
2023-05-08T08:07:37.878Z,98849.88
2023-05-08T08:10:05.915Z,98849.23
2023-05-08T08:12:33.110Z,98851.25
2023-05-08T08:15:00.017Z,98850.57
2023-05-08T08:17:28.919Z,98856.56
2023-05-08T08:19:56.621Z,98852.33
2023-05-08T08:23:16.433Z,98857.56
2023-05-08T08:25:43.388Z,98856.89
2023-05-08T08:28:10.850Z,98856.35
2023-05-08T08:30:37.950Z,98855.55
2023-05-08T08:33:05.915Z,98853.27
2023-05-08T08:35:33.278Z,98852.32
2023-05-08T08:38:00.535Z,98855.40
2023-05-08T08:40:28.015Z,98852.98
2023-05-08T08:42:55.166Z,98845.30
2023-05-08T08:45:22.288Z,98850.73
2023-05-08T08:47:52.623Z,98843.89
2023-05-08T08:50:22.969Z,98844.21
2023-05-08T08:52:55.986Z,98843.16
2023-05-08T08:55:25.840Z,98839.64
2023-05-08T08:58:15.638Z,98837.48
2023-05-08T09:00:43.288Z,98838.04
2023-05-08T09:03:11.393Z,98839.27
2023-05-08T09:05:39.624Z,98837.48
2023-05-08T09:08:07.207Z,98838.93
2023-05-08T09:10:35.741Z,98838.62
2023-05-08T09:13:04.076Z,98839.48
2023-05-08T09:15:32.552Z,98834.98
2023-05-08T09:18:01.923Z,98834.56
2023-05-08T09:20:29.538Z,98834.58
2023-05-08T09:22:57.565Z,98836.13
2023-05-08T09:25:24.659Z,98832.77
2023-05-08T09:27:51.979Z,98832.45
2023-05-08T09:30:19.251Z,98836.54
2023-05-08T09:32:46.450Z,98837.77
2023-05-08T09:35:14.099Z,98830.52
2023-05-08T09:37:42.959Z,98825.14
2023-05-08T09:40:13.961Z,98826.11
2023-05-08T09:42:41.333Z,98824.16
2023-05-08T09:45:09.218Z,98829.35
2023-05-08T09:47:39.831Z,98826.95
2023-05-08T09:50:10.094Z,98824.16
2023-05-08T09:52:38.831Z,98819.71
2023-05-08T09:55:08.312Z,98816.20
2023-05-08T09:57:38.902Z,98813.05
2023-05-08T10:00:12.347Z,98810.70
2023-05-08T10:02:41.926Z,98815.30
2023-05-08T10:05:29.320Z,98811.35
2023-05-08T10:07:57.901Z,98808.23
2023-05-08T10:10:26.926Z,98807.23
2023-05-08T10:12:56.033Z,98807.54
2023-05-08T10:15:33.953Z,98804.35
2023-05-08T10:18:05.842Z,98803.20
2023-05-08T10:20:34.610Z,98804.47
2023-05-08T10:23:02.989Z,98805.47
2023-05-08T10:25:33.834Z,98808.74
2023-05-08T10:28:16.898Z,98808.23
2023-05-08T10:30:48.299Z,98807.14
2023-05-08T10:33:20.867Z,98814.24
2023-05-08T10:35:48.585Z,98812.02
2023-05-08T10:38:16.812Z,98809.38
2023-05-08T10:40:44.653Z,98810.45
2023-05-08T10:43:12.079Z,98816.55
2023-05-08T10:45:39.710Z,98820.01
2023-05-08T10:48:35.414Z,98820.77
2023-05-08T10:51:05.661Z,98820.70
2023-05-08T10:54:01.724Z,98821.33
2023-05-08T10:56:28.769Z,98814.86
2023-05-08T10:58:59.110Z,98814.62
2023-05-08T11:01:26.458Z,98817.79
2023-05-08T11:03:55.189Z,98811.58
2023-05-08T11:06:48.573Z,98808.58
2023-05-08T11:09:21.366Z,98805.79
2023-05-08T11:12:18.317Z,98801.23
2023-05-08T11:15:04.605Z,98801.38
2023-05-08T11:17:32.380Z,98805.23
2023-05-08T11:20:01.614Z,98810.86
2023-05-08T11:22:36.317Z,98810.41
2023-05-08T11:25:03.411Z,98810.35
2023-05-08T11:27:37.087Z,98813.80
2023-05-08T11:30:32.302Z,98814.77
2023-05-08T11:33:05.244Z,98813.49
2023-05-08T11:35:45.146Z,98815.02
2023-05-08T11:38:30.614Z,98819.53
2023-05-08T11:41:02.579Z,98822.77
2023-05-08T11:43:32.390Z,98823.55
2023-05-08T11:46:02.528Z,98821.54
2023-05-08T11:48:30.762Z,98820.02
2023-05-08T11:50:59.585Z,98818.71
2023-05-08T11:53:27.169Z,98825.21
2023-05-08T11:55:54.965Z,98823.90
2023-05-08T11:58:22.273Z,98824.95
2023-05-08T12:00:49.590Z,98825.02
2023-05-08T12:03:22.868Z,98825.27
2023-05-08T12:05:50.980Z,98824.36
2023-05-08T12:08:18.358Z,98826.34
2023-05-08T12:10:53.816Z,98822.55
2023-05-08T12:13:25.599Z,98821.73
2023-05-08T12:15:55.515Z,98822.90
2023-05-08T12:18:23.644Z,98821.09
2023-05-08T12:20:52.725Z,98826.06
2023-05-08T12:23:20.452Z,98823.70
2023-05-08T12:25:47.585Z,98826.61
2023-05-08T12:28:15.367Z,98825.72
2023-05-08T12:30:42.560Z,98827.50
2023-05-08T12:33:10.645Z,98826.77
2023-05-08T12:35:39.158Z,98830.01
2023-05-08T12:38:08.150Z,98826.37
2023-05-08T12:40:39.784Z,98827.42
2023-05-08T12:43:06.898Z,98827.69
2023-05-08T12:45:40.018Z,98825.36
2023-05-08T12:48:12.461Z,98825.77
2023-05-08T12:50:42.038Z,98828.21
2023-05-08T12:53:17.834Z,98830.20
2023-05-08T12:55:53.776Z,98827.59
2023-05-08T12:58:25.818Z,98830.41
2023-05-08T13:00:54.155Z,98822.10
2023-05-08T13:03:27.656Z,98822.02
2023-05-08T13:05:57.724Z,98820.85
2023-05-08T13:08:31.742Z,98822.67
2023-05-08T13:11:00.303Z,98821.34
2023-05-08T13:13:30.891Z,98822.73
2023-05-08T13:16:01.766Z,98825.44
2023-05-08T13:18:29.504Z,98825.03
2023-05-08T13:20:57.170Z,98829.43
2023-05-08T13:23:24.652Z,98828.48
2023-05-08T13:25:52.108Z,98831.34
2023-05-08T13:28:19.355Z,98829.94
2023-05-08T13:30:46.610Z,98833.38
2023-05-08T13:33:13.681Z,98833.82
2023-05-08T13:35:40.805Z,98837.30
2023-05-08T13:38:07.775Z,98835.17
2023-05-08T13:40:34.739Z,98831.16
2023-05-08T13:43:01.684Z,98833.05
2023-05-08T13:45:28.835Z,98833.92
2023-05-08T13:47:55.807Z,98838.73
2023-05-08T13:50:22.928Z,98839.94
2023-05-08T13:52:51.057Z,98845.05
2023-05-08T13:55:21.858Z,98847.79
2023-05-08T13:57:49.142Z,98849.41
2023-05-08T14:00:16.784Z,98849.09
2023-05-08T14:02:43.852Z,98853.19
2023-05-08T14:05:11.310Z,98858.34
2023-05-08T14:07:38.657Z,98857.80
2023-05-08T14:10:06.045Z,98868.90
2023-05-08T14:12:35.522Z,98870.30
2023-05-08T14:15:04.255Z,98871.96
2023-05-08T14:17:31.382Z,98873.14
2023-05-08T14:19:58.745Z,98870.95
2023-05-08T14:22:25.996Z,98876.95
2023-05-08T14:24:53.247Z,98877.15
2023-05-08T14:27:20.502Z,98876.58
2023-05-08T14:29:47.681Z,98878.13
2023-05-08T14:32:15.071Z,98880.02
2023-05-08T14:34:42.148Z,98881.80
2023-05-08T14:37:09.443Z,98883.77
2023-05-08T14:39:36.392Z,98883.34
2023-05-08T14:44:33.556Z,98893.90
2023-05-08T14:47:00.652Z,98898.75
2023-05-08T14:49:36.652Z,98901.31
2023-05-08T14:52:06.829Z,98901.71
2023-05-08T14:54:34.098Z,98908.21
2023-05-08T14:57:01.538Z,98910.35
2023-05-08T14:59:29.806Z,98917.63
2023-05-08T15:01:57.124Z,98919.33
2023-05-08T15:04:24.300Z,98918.81
2023-05-08T15:06:51.358Z,98919.26
2023-05-08T15:09:18.443Z,98919.35
2023-05-08T15:11:45.489Z,98917.34
2023-05-08T15:14:12.526Z,98919.77
2023-05-08T15:16:39.619Z,98920.69
2023-05-08T15:19:08.808Z,98924.13
2023-05-08T15:21:35.844Z,98925.46
2023-05-08T15:24:03.006Z,98929.81
2023-05-08T15:26:30.004Z,98930.17
2023-05-08T15:28:56.894Z,98932.80
2023-05-08T15:31:23.815Z,98927.56
2023-05-08T15:33:50.872Z,98927.11
2023-05-08T15:36:17.795Z,98921.77
2023-05-08T15:38:44.710Z,98925.03
2023-05-08T15:41:14.753Z,98920.53
2023-05-08T15:43:44.632Z,98919.83
2023-05-08T15:46:11.797Z,98919.72
2023-05-08T15:48:38.852Z,98918.80
2023-05-08T15:51:06.073Z,98922.00
2023-05-08T15:53:33.906Z,98918.95
2023-05-08T15:56:00.927Z,98922.41
2023-05-08T15:58:27.963Z,98919.38
2023-05-08T16:00:56.289Z,98923.59
2023-05-08T16:03:23.921Z,98921.20
2023-05-08T16:05:50.885Z,98922.28
2023-05-08T16:08:17.772Z,98928.73
2023-05-08T16:10:44.668Z,98929.81
2023-05-08T16:13:11.555Z,98935.62
2023-05-08T16:15:38.681Z,98936.39
2023-05-08T16:18:06.376Z,98940.87
2023-05-08T16:20:35.092Z,98949.16
2023-05-08T16:23:03.179Z,98955.23
2023-05-08T16:25:30.199Z,98959.90
2023-05-08T16:27:57.292Z,98957.66
2023-05-08T16:30:24.283Z,98958.52
2023-05-08T16:32:51.332Z,98964.89
2023-05-08T16:35:19.038Z,98965.28
2023-05-08T16:37:46.272Z,98964.33
2023-05-08T16:40:13.385Z,98966.09
2023-05-08T16:42:40.828Z,98968.29
2023-05-08T16:45:08.369Z,98970.85
2023-05-08T16:47:35.442Z,98972.04
2023-05-08T16:50:03.764Z,98975.23
2023-05-08T16:52:32.254Z,98984.79
2023-05-08T16:54:59.292Z,98981.84
2023-05-08T16:57:26.983Z,98991.73
2023-05-08T16:59:54.303Z,98992.80
2023-05-08T17:02:21.408Z,98996.88
2023-05-08T17:04:49.004Z,98998.88
2023-05-08T17:07:16.948Z,99002.77
2023-05-08T17:09:44.732Z,99006.23
2023-05-08T17:12:11.576Z,99013.35
2023-05-08T17:14:39.765Z,99021.93
2023-05-08T17:17:07.019Z,99023.88
2023-05-08T17:19:34.758Z,99027.70
2023-05-08T17:22:01.997Z,99033.71
2023-05-08T17:24:29.964Z,99038.11
2023-05-08T17:26:57.005Z,99042.73
2023-05-08T17:29:24.096Z,99051.05
2023-05-08T17:31:51.195Z,99050.89
2023-05-08T17:34:18.304Z,99062.69
2023-05-08T17:36:45.202Z,99074.44
2023-05-08T17:39:12.214Z,99074.41
2023-05-08T17:41:39.134Z,99076.64
2023-05-08T17:44:06.508Z,99087.92
2023-05-08T17:46:33.380Z,99095.95
2023-05-08T17:49:00.411Z,99100.95
2023-05-08T17:51:27.308Z,99097.61
2023-05-08T17:53:55.888Z,99105.73
2023-05-08T17:56:23.217Z,99110.38
2023-05-08T17:58:51.763Z,99114.91
2023-05-08T18:01:22.499Z,99118.55
2023-05-08T18:03:49.450Z,99117.13
2023-05-08T18:06:17.701Z,99119.09
2023-05-08T18:08:45.673Z,99118.20
2023-05-08T18:11:21.824Z,99123.34
2023-05-08T18:13:49.798Z,99130.44
2023-05-08T18:16:18.055Z,99137.64
2023-05-08T18:18:45.171Z,99139.10
2023-05-08T18:21:12.453Z,99136.89
2023-05-08T18:23:39.485Z,99143.26
2023-05-08T18:26:06.897Z,99144.65
2023-05-08T18:28:35.660Z,99149.63
2023-05-08T18:31:02.876Z,99155.40
2023-05-08T18:33:29.795Z,99156.30
2023-05-08T18:35:56.987Z,99161.13
2023-05-08T18:38:24.033Z,99165.84
2023-05-08T18:40:50.918Z,99163.41
2023-05-08T18:43:17.772Z,99163.31
2023-05-08T18:45:47.397Z,99161.61
2023-05-08T18:48:14.263Z,99165.80
2023-05-08T18:50:41.162Z,99163.20
2023-05-08T18:53:09.232Z,99164.77
2023-05-08T18:55:36.471Z,99170.06
2023-05-08T18:58:05.470Z,99168.30
2023-05-08T19:00:32.829Z,99167.58
2023-05-08T19:03:02.003Z,99160.73
2023-05-08T19:05:29.037Z,99162.98
2023-05-08T19:07:55.929Z,99160.87
2023-05-08T19:10:22.848Z,99162.78
2023-05-08T19:12:50.146Z,99165.80
2023-05-08T19:15:17.276Z,99168.14
2023-05-08T19:17:44.298Z,99166.85
2023-05-08T19:20:12.371Z,99169.04
2023-05-08T19:22:39.478Z,99174.73
2023-05-08T19:25:06.491Z,99177.56
2023-05-08T19:27:33.589Z,99168.67
2023-05-08T19:30:00.381Z,99173.90
2023-05-08T19:32:28.214Z,99175.83
2023-05-08T19:34:56.969Z,99178.63
2023-05-08T19:37:24.426Z,99178.49
2023-05-08T19:39:51.516Z,99177.38
2023-05-08T19:42:18.502Z,99180.21
2023-05-08T19:44:45.483Z,99182.27
2023-05-08T19:47:12.901Z,99184.70
2023-05-08T19:49:39.838Z,99183.05
2023-05-08T19:52:06.664Z,99185.45
2023-05-08T19:54:33.736Z,99183.32
2023-05-08T19:57:01.432Z,99183.84
2023-05-08T19:59:28.374Z,99179.09
2023-05-08T20:01:55.394Z,99185.38
2023-05-08T20:04:23.633Z,99184.14
2023-05-08T20:06:50.710Z,99186.11
2023-05-08T20:09:17.595Z,99191.58
2023-05-08T20:11:44.636Z,99194.43
2023-05-08T20:14:11.547Z,99188.92
2023-05-08T20:16:38.603Z,99185.49
2023-05-08T20:19:05.523Z,99183.73
2023-05-08T20:21:33.443Z,99176.91
2023-05-08T20:24:00.514Z,99176.97
2023-05-08T20:26:28.912Z,99179.48
2023-05-08T20:28:56.806Z,99181.52
2023-05-08T20:31:25.199Z,99182.05
2023-05-08T20:33:52.145Z,99184.20
2023-05-08T20:36:19.470Z,99182.02
2023-05-08T20:38:46.538Z,99186.39
2023-05-08T20:41:13.441Z,99187.70
2023-05-08T20:43:40.449Z,99188.90
2023-05-08T20:46:07.720Z,99198.31
2023-05-08T20:48:34.889Z,99201.75
2023-05-08T20:51:01.825Z,99205.38
2023-05-08T20:53:28.828Z,99210.00
2023-05-08T20:56:03.449Z,99216.62
2023-05-08T20:58:30.864Z,99217.25
2023-05-08T21:00:57.852Z,99222.53
2023-05-08T21:03:24.959Z,99226.73
2023-05-08T21:05:51.878Z,99233.30
2023-05-08T21:08:23.511Z,99232.56
2023-05-08T21:10:51.303Z,99237.83
2023-05-08T21:13:18.597Z,99239.95
2023-05-08T21:15:49.513Z,99249.35
2023-05-08T21:18:16.805Z,99246.42
2023-05-08T21:20:50.241Z,99249.05
2023-05-08T21:23:18.496Z,99250.67
2023-05-08T21:25:49.212Z,99253.67
2023-05-08T21:28:16.680Z,99259.53
2023-05-08T21:30:44.645Z,99258.92
2023-05-08T21:33:15.552Z,99258.38
2023-05-08T21:35:43.166Z,99260.33
2023-05-08T21:38:12.949Z,99256.37
2023-05-08T21:40:39.998Z,99256.55
2023-05-08T21:43:07.269Z,99257.66
2023-05-08T21:45:34.558Z,99252.63
2023-05-08T21:48:02.082Z,99256.64
2023-05-08T21:50:29.079Z,99252.25
2023-05-08T21:52:56.204Z,99248.16
2023-05-08T21:55:23.744Z,99248.19
2023-05-08T21:57:50.779Z,99246.06
2023-05-08T22:00:18.480Z,99246.02
2023-05-08T22:02:48.503Z,99242.11
2023-05-08T22:05:15.829Z,99243.58
2023-05-08T22:07:43.093Z,99240.83
2023-05-08T22:10:11.124Z,99237.91
2023-05-08T22:12:38.163Z,99239.21
2023-05-08T22:15:14.988Z,99238.81
2023-05-08T22:17:45.346Z,99236.80
2023-05-08T22:20:16.144Z,99231.75
2023-05-08T22:22:43.152Z,99236.61
2023-05-08T22:25:10.420Z,99241.50
2023-05-08T22:27:37.490Z,99237.20
2023-05-08T22:30:05.209Z,99237.97
2023-05-08T22:32:32.316Z,99234.46
2023-05-08T22:34:59.234Z,99234.59
2023-05-08T22:37:26.248Z,99240.31
2023-05-08T22:39:53.256Z,99234.91
2023-05-08T22:42:20.417Z,99237.67
2023-05-08T22:44:47.724Z,99234.92
2023-05-08T22:47:15.487Z,99232.10
2023-05-08T22:49:42.631Z,99234.46
2023-05-08T22:52:09.743Z,99233.14
2023-05-08T22:54:36.811Z,99234.80
2023-05-08T22:57:03.784Z,99233.36
2023-05-08T22:59:30.886Z,99237.80
2023-05-08T23:01:57.912Z,99240.95
2023-05-08T23:04:25.113Z,99240.83
2023-05-08T23:06:52.153Z,99241.33
2023-05-08T23:09:19.089Z,99245.51
2023-05-08T23:11:46.870Z,99239.80
2023-05-08T23:14:14.066Z,99242.42
2023-05-08T23:16:41.183Z,99247.61
2023-05-08T23:19:09.481Z,99246.41
2023-05-08T23:21:36.497Z,99241.42
2023-05-08T23:24:04.675Z,99247.22
2023-05-08T23:26:31.795Z,99250.30
2023-05-08T23:28:58.753Z,99251.13
2023-05-08T23:31:25.785Z,99252.52
2023-05-08T23:33:52.803Z,99254.73
2023-05-08T23:36:20.132Z,99257.64
2023-05-08T23:38:47.212Z,99254.98
2023-05-08T23:41:14.173Z,99258.00
2023-05-08T23:43:41.685Z,99258.04
2023-05-08T23:46:09.247Z,99258.79
2023-05-08T23:48:36.530Z,99260.06
2023-05-08T23:51:03.614Z,99256.46
2023-05-08T23:53:30.610Z,99251.14
2023-05-08T23:55:57.658Z,99250.36
2023-05-08T23:58:24.582Z,99249.58
